createdAt,value
2023-07-25T00:04:55.158Z,99054.41
2023-07-25T00:09:53.906Z,99052.81
2023-07-25T00:14:52.609Z,99062.69
2023-07-25T00:19:51.270Z,99055.94
2023-07-25T00:24:50.563Z,99071.97
2023-07-25T00:29:52.687Z,99069.34
2023-07-25T00:34:51.915Z,99066.34
2023-07-25T00:39:54.229Z,99058.41
2023-07-25T00:44:53.480Z,99063.63
2023-07-25T00:49:53.540Z,99053.47
2023-07-25T00:54:52.502Z,99064.94
2023-07-25T00:59:51.146Z,99060.88
2023-07-25T01:04:49.830Z,99071.88
2023-07-25T01:09:48.567Z,99079.16
2023-07-25T01:14:47.395Z,99078.97
2023-07-25T01:19:47.850Z,99077.84
2023-07-25T01:24:48.790Z,99076.50
2023-07-25T01:29:47.802Z,99082.53
2023-07-25T01:34:46.880Z,99071.38
2023-07-25T01:39:45.719Z,99050.56
2023-07-25T01:44:44.551Z,99065.28
2023-07-25T01:49:43.476Z,99072.84
2023-07-25T01:54:42.461Z,99074.81
2023-07-25T01:59:41.475Z,99089.31
2023-07-25T02:04:40.317Z,99080.44
2023-07-25T02:09:39.172Z,99086.28
2023-07-25T02:14:37.992Z,99086.44
2023-07-25T02:19:39.393Z,99085.81
2023-07-25T02:24:38.439Z,99091.56
2023-07-25T02:29:56.052Z,99095.63
2023-07-25T02:34:55.045Z,99096.91
2023-07-25T02:39:53.897Z,99090.81
2023-07-25T02:44:52.793Z,99097.38
2023-07-25T02:49:51.624Z,99102.41
2023-07-25T02:54:50.423Z,99091.09
2023-07-25T02:59:49.424Z,99104.16
2023-07-25T03:04:48.238Z,99102.88
2023-07-25T03:09:47.637Z,99110.59
2023-07-25T03:14:46.440Z,99107.31
2023-07-25T03:19:45.413Z,99105.66
2023-07-25T03:24:44.286Z,99117.00
2023-07-25T03:29:43.236Z,99123.72
2023-07-25T03:34:42.066Z,99125.34
2023-07-25T03:39:40.844Z,99118.81
2023-07-25T03:44:39.761Z,99094.66
2023-07-25T03:49:38.643Z,99115.44
2023-07-25T03:54:37.600Z,99112.88
2023-07-25T03:59:36.404Z,99116.75
2023-07-25T04:04:35.376Z,99125.59
2023-07-25T04:09:34.367Z,99116.75
2023-07-25T04:14:34.477Z,99098.34
2023-07-25T04:19:34.314Z,99088.19
2023-07-25T04:24:33.134Z,99084.81
2023-07-25T04:29:32.125Z,99085.34
2023-07-25T04:34:31.048Z,99090.13
2023-07-25T04:39:29.866Z,99106.31
2023-07-25T04:44:28.849Z,99101.50
2023-07-25T04:49:27.740Z,99118.69
2023-07-25T04:54:26.698Z,99112.16
2023-07-25T04:59:25.485Z,99129.53
2023-07-25T05:04:24.389Z,99128.88
2023-07-25T05:09:23.290Z,99134.31
2023-07-25T05:14:22.067Z,99145.47
2023-07-25T05:19:21.077Z,99146.91
2023-07-25T05:24:19.898Z,99150.94
2023-07-25T05:29:18.905Z,99155.47
2023-07-25T05:34:17.709Z,99153.28
2023-07-25T05:39:16.464Z,99155.63
2023-07-25T05:44:15.343Z,99165.66
2023-07-25T05:49:14.292Z,99159.81
2023-07-25T05:54:16.445Z,99166.59
2023-07-25T05:59:15.461Z,99176.00
2023-07-25T06:04:16.699Z,99173.75
2023-07-25T06:09:15.528Z,99176.38
2023-07-25T06:14:14.335Z,99185.31
2023-07-25T06:19:13.695Z,99178.25
2023-07-25T06:24:12.860Z,99171.00
2023-07-25T06:29:11.857Z,99165.50
2023-07-25T06:34:10.612Z,99164.53
2023-07-25T06:39:09.588Z,99154.84
2023-07-25T06:44:08.425Z,99162.59
2023-07-25T06:49:07.333Z,99155.16
2023-07-25T06:54:06.120Z,99148.81
2023-07-25T06:59:04.901Z,99137.22
2023-07-25T07:04:03.914Z,99124.19
2023-07-25T07:09:02.731Z,99110.63
2023-07-25T07:14:01.654Z,99086.31
2023-07-25T07:19:01.061Z,99088.19
2023-07-25T07:24:00.089Z,99085.81
2023-07-25T07:28:58.992Z,99086.00
2023-07-25T07:34:11.590Z,99091.31
2023-07-25T07:39:11.564Z,99102.31
2023-07-25T07:44:10.499Z,99114.31
2023-07-25T07:49:09.471Z,99101.47
2023-07-25T07:54:08.279Z,99097.41
2023-07-25T07:59:08.222Z,99089.47
2023-07-25T08:04:07.927Z,99098.63
2023-07-25T08:09:07.666Z,99092.69
2023-07-25T08:14:25.918Z,99099.09
2023-07-25T08:19:25.017Z,99107.50
2023-07-25T08:24:23.888Z,99108.88
2023-07-25T08:29:22.686Z,99111.16
2023-07-25T08:34:21.530Z,99108.50
2023-07-25T08:39:20.318Z,99120.81
2023-07-25T08:44:22.079Z,99124.53
2023-07-25T08:49:26.135Z,99112.00
2023-07-25T08:54:33.037Z,99120.84
2023-07-25T08:59:32.735Z,99126.66
2023-07-25T09:04:32.408Z,99120.91
2023-07-25T09:09:31.366Z,99114.22
2023-07-25T09:14:30.324Z,99106.28
2023-07-25T09:19:31.108Z,99102.47
2023-07-25T09:24:37.716Z,99103.53
2023-07-25T09:29:38.729Z,99107.09
2023-07-25T09:34:39.146Z,99106.19
2023-07-25T09:39:38.176Z,99095.03
2023-07-25T09:44:37.217Z,99087.66
2023-07-25T09:49:36.148Z,99088.19
2023-07-25T09:54:35.029Z,99083.47
2023-07-25T09:59:35.209Z,99080.00
2023-07-25T10:04:37.512Z,99078.34
2023-07-25T10:09:36.707Z,99076.91
2023-07-25T10:14:39.475Z,99077.16
2023-07-25T10:19:52.508Z,99058.28
2023-07-25T10:24:51.523Z,99071.56
2023-07-25T10:29:51.727Z,99069.56
2023-07-25T10:35:02.329Z,99064.75
2023-07-25T10:40:07.944Z,99055.19
2023-07-25T10:45:07.016Z,99062.00
2023-07-25T10:50:06.627Z,99061.56
2023-07-25T10:55:05.922Z,99051.59
2023-07-25T11:00:10.261Z,99054.59
2023-07-25T11:05:15.264Z,99046.41
2023-07-25T11:10:25.052Z,99040.22
2023-07-25T11:15:40.811Z,99040.34
2023-07-25T11:20:43.432Z,99045.94
2023-07-25T11:25:42.474Z,99031.81
2023-07-25T11:30:45.237Z,99029.22
2023-07-25T11:35:44.476Z,99020.38
2023-07-25T11:40:43.424Z,99008.84
2023-07-25T11:45:45.230Z,98997.69
2023-07-25T11:50:45.039Z,99006.47
2023-07-25T11:55:46.542Z,98992.25
2023-07-25T12:00:49.787Z,98991.81
2023-07-25T12:06:07.087Z,98985.34
2023-07-25T12:11:10.840Z,98985.00
2023-07-25T12:16:09.685Z,98979.13
2023-07-25T12:21:32.700Z,98980.50
2023-07-25T12:26:46.738Z,98973.56
2023-07-25T12:31:45.646Z,98967.78
2023-07-25T12:36:44.512Z,98973.25
2023-07-25T12:41:46.299Z,98979.69
2023-07-25T12:46:45.240Z,98976.38
2023-07-25T12:51:44.298Z,98971.13
2023-07-25T12:56:43.085Z,98964.72
2023-07-25T13:01:41.994Z,98965.88
2023-07-25T13:06:41.422Z,98969.59
2023-07-25T13:11:40.200Z,98965.38
2023-07-25T13:16:38.988Z,98978.69
2023-07-25T13:21:38.017Z,98993.03
2023-07-25T13:26:36.983Z,98992.50
2023-07-25T13:31:36.219Z,99005.84
2023-07-25T13:36:35.029Z,98996.47
2023-07-25T13:41:34.132Z,99002.31
2023-07-25T13:46:33.163Z,99019.94
2023-07-25T13:51:32.217Z,99024.81
2023-07-25T13:56:31.309Z,99030.16
2023-07-25T14:01:30.716Z,99038.28
2023-07-25T14:06:30.385Z,99048.13
2023-07-25T14:11:29.417Z,99057.34
2023-07-25T14:16:29.265Z,99056.75
2023-07-25T14:21:28.150Z,99059.97
2023-07-25T14:26:27.105Z,99069.06
2023-07-25T14:31:26.441Z,99064.38
2023-07-25T14:36:25.582Z,99056.31
2023-07-25T14:41:24.581Z,99057.75
2023-07-25T14:46:23.562Z,99050.09
2023-07-25T14:51:22.414Z,99055.34
2023-07-25T14:56:21.395Z,99055.31
2023-07-25T15:01:20.197Z,99054.63
2023-07-25T15:06:18.991Z,99050.13
2023-07-25T15:11:18.199Z,99051.63
2023-07-25T15:16:17.366Z,99054.19
2023-07-25T15:21:16.490Z,99055.78
2023-07-25T15:26:15.363Z,99056.97
2023-07-25T15:31:14.937Z,99052.78
2023-07-25T15:36:13.727Z,99053.41
2023-07-25T15:41:12.526Z,99051.47
2023-07-25T15:46:11.479Z,99066.00
2023-07-25T15:51:10.342Z,99063.56
2023-07-25T15:56:09.101Z,99060.81
2023-07-25T16:01:07.954Z,99049.22
2023-07-25T16:06:06.768Z,99049.56
2023-07-25T16:11:05.599Z,99059.53
2023-07-25T16:16:04.660Z,99046.03
2023-07-25T16:21:04.972Z,99056.59
2023-07-25T16:26:04.720Z,99059.97
2023-07-25T16:31:30.557Z,99061.19
2023-07-25T16:36:22.384Z,99062.94
2023-07-25T16:41:21.402Z,99067.28
2023-07-25T16:46:20.308Z,99063.03
2023-07-25T16:51:19.318Z,99055.78
2023-07-25T16:56:18.178Z,99058.66
2023-07-25T17:01:17.017Z,99065.41
2023-07-25T17:06:15.830Z,99059.34
2023-07-25T17:11:16.446Z,99062.28
2023-07-25T17:16:15.232Z,99070.44
2023-07-25T17:21:18.391Z,99068.00
2023-07-25T17:26:22.542Z,99070.25
2023-07-25T17:31:21.319Z,99071.38
2023-07-25T17:36:20.120Z,99073.63
2023-07-25T17:41:19.143Z,99076.00
2023-07-25T17:46:17.933Z,99070.53
2023-07-25T17:51:16.888Z,99072.16
2023-07-25T17:56:15.799Z,99067.31
2023-07-25T18:01:14.945Z,99056.06
2023-07-25T18:06:15.259Z,99063.53
2023-07-25T18:11:14.134Z,99073.56
2023-07-25T18:16:13.006Z,99073.41
2023-07-25T18:21:12.054Z,99092.34
2023-07-25T18:26:11.321Z,99098.06
2023-07-25T18:31:10.416Z,99105.84
2023-07-25T18:36:09.297Z,99121.09
2023-07-25T18:41:08.084Z,99137.09
2023-07-25T18:46:06.963Z,99137.38
2023-07-25T18:51:05.710Z,99141.72
2023-07-25T18:56:05.004Z,99143.34
2023-07-25T19:01:04.602Z,99144.53
2023-07-25T19:06:03.605Z,99165.88
2023-07-25T19:11:02.559Z,99170.34
2023-07-25T19:16:01.327Z,99183.41
2023-07-25T19:21:00.179Z,99192.53
2023-07-25T19:25:59.860Z,99206.47
2023-07-25T19:30:59.728Z,99213.97
2023-07-25T19:35:59.818Z,99218.16
2023-07-25T19:40:58.640Z,99229.13
2023-07-25T19:46:03.949Z,99233.13
2023-07-25T19:51:13.318Z,99230.25
2023-07-25T19:56:12.118Z,99244.19
2023-07-25T20:01:13.760Z,99249.41
2023-07-25T20:06:12.666Z,99263.63
2023-07-25T20:11:11.600Z,99275.44
2023-07-25T20:16:10.574Z,99277.00
2023-07-25T20:21:11.726Z,99284.84
2023-07-25T20:26:13.159Z,99286.75
2023-07-25T20:31:12.265Z,99290.53
2023-07-25T20:36:11.230Z,99301.88
2023-07-25T20:41:10.109Z,99301.44
2023-07-25T20:46:09.037Z,99317.28
2023-07-25T20:51:08.016Z,99319.66
2023-07-25T20:56:08.091Z,99325.84
2023-07-25T21:01:08.827Z,99333.28
2023-07-25T21:06:07.731Z,99331.34
2023-07-25T21:11:09.117Z,99332.81
2023-07-25T21:16:08.549Z,99338.56
2023-07-25T21:21:07.562Z,99344.44
2023-07-25T21:26:06.490Z,99355.28
2023-07-25T21:31:10.252Z,99355.56
2023-07-25T21:36:14.345Z,99360.22
2023-07-25T21:41:19.172Z,99365.47
2023-07-25T21:46:21.247Z,99373.69
2023-07-25T21:51:20.704Z,99365.47
2023-07-25T21:56:19.711Z,99380.34
2023-07-25T22:01:21.594Z,99379.47
2023-07-25T22:06:20.598Z,99384.19
2023-07-25T22:11:19.665Z,99390.91
2023-07-25T22:16:18.728Z,99393.53
2023-07-25T22:21:20.203Z,99392.41
2023-07-25T22:26:19.211Z,99398.19
2023-07-25T22:31:18.198Z,99401.53
2023-07-25T22:36:17.141Z,99409.16
2023-07-25T22:41:16.469Z,99406.50
2023-07-25T22:46:15.824Z,99412.41
2023-07-25T22:51:14.684Z,99416.50
2023-07-25T22:56:13.571Z,99416.38
2023-07-25T23:01:13.559Z,99416.56
2023-07-25T23:06:12.599Z,99423.66
2023-07-25T23:11:13.219Z,99424.91
2023-07-25T23:16:12.247Z,99424.75
2023-07-25T23:21:11.255Z,99424.25
2023-07-25T23:26:10.069Z,99425.78
2023-07-25T23:31:09.007Z,99424.47
2023-07-25T23:36:07.921Z,99426.03
2023-07-25T23:41:07.197Z,99432.13
2023-07-25T23:46:06.073Z,99440.84
2023-07-25T23:51:04.977Z,99439.38
2023-07-25T23:56:04.875Z,99437.34
